Terminal Aerodrome Forecast
Issued by NWS

Home | Current Version | Previous Version | Text Only | Print | Product List | Glossary On
Versions: 1 2 3 4 5 6 7 8 9 10 11 12 13 14 15 16
000
FTUS43 KGRR 230554 CCA
TAFJXN
TAF COR
KJXN 230554Z 2306/2406 34005KT P6SM BKN008 OVC015
     FM230800 VRB03KT 4SM BR OVC008
     FM231500 VRB03KT P6SM SCT020
     FM231700 27006KT P6SM VCTS BKN070CB=

USA.gov is the U.S. government's official web portal to all federal, state and local government web resources and services.